Terminal Aerodrome Forecast
Issued by NWS

Home | Current Version | Previous Version | Text Only | Print | Product List | Glossary On
Versions: 1 2 3 4 5 6 7 8 9 10 11 12 13 14 15 16 17 18 19
000
FTUS43 KDMX 161129
TAFOTM
TAF
KOTM 161129Z 1612/1712 09008KT 1SM -FZRA OVC002
     FM161700 10010KT 2SM -RA OVC003
     FM170000 09006KT 1/2SM -RA OVC003
     FM170500 34004KT 1/2SM -RA OVC003
     FM170600 32005KT P6SM OVC003=

USA.gov is the U.S. government's official web portal to all federal, state and local government web resources and services.